createdAt,value
2023-03-05T00:02:32.657Z,10.44
2023-03-05T00:05:34.898Z,10.40
2023-03-05T00:08:37.651Z,10.38
2023-03-05T00:11:39.832Z,10.31
2023-03-05T00:14:41.980Z,10.35
2023-03-05T00:17:44.185Z,10.33
2023-03-05T00:20:46.719Z,10.33
2023-03-05T00:23:50.720Z,10.49
2023-03-05T00:26:53.174Z,10.36
2023-03-05T00:29:55.329Z,10.41
2023-03-05T00:32:57.804Z,10.38
2023-03-05T00:36:02.464Z,10.33
2023-03-05T00:39:04.751Z,10.44
2023-03-05T00:42:07.909Z,10.33
2023-03-05T00:45:11.168Z,10.29
2023-03-05T00:48:13.300Z,10.36
2023-03-05T00:51:15.443Z,10.43
2023-03-05T00:54:17.753Z,10.39
2023-03-05T00:57:19.980Z,10.44
2023-03-05T01:00:22.182Z,10.44
2023-03-05T01:03:24.332Z,10.57
2023-03-05T01:06:26.658Z,10.39
2023-03-05T01:09:29.024Z,10.41
2023-03-05T01:12:31.237Z,10.42
2023-03-05T01:15:33.426Z,10.41
2023-03-05T01:18:35.747Z,10.42
2023-03-05T01:21:38.055Z,10.38
2023-03-05T01:24:40.233Z,10.41
2023-03-05T01:27:42.492Z,10.42
2023-03-05T01:30:45.140Z,10.39
2023-03-05T01:33:47.541Z,10.32
2023-03-05T01:36:50.569Z,10.31
2023-03-05T01:39:54.108Z,10.39
2023-03-05T01:43:00.811Z,10.45
2023-03-05T01:46:22.904Z,10.61
2023-03-05T01:49:48.363Z,10.68
2023-03-05T01:52:55.511Z,10.70
2023-03-05T01:55:58.139Z,10.70
2023-03-05T01:59:03.635Z,10.65
2023-03-05T02:02:07.975Z,10.54
2023-03-05T02:05:13.473Z,10.47
2023-03-05T02:08:18.418Z,10.33
2023-03-05T02:11:21.320Z,10.36
2023-03-05T02:14:27.090Z,10.44
2023-03-05T02:17:29.333Z,10.40
2023-03-05T02:20:44.203Z,10.43
2023-03-05T02:23:46.287Z,10.46
2023-03-05T02:26:48.480Z,10.47
2023-03-05T02:29:52.036Z,10.41
2023-03-05T02:32:54.462Z,10.31
2023-03-05T02:35:57.619Z,10.54
2023-03-05T02:39:00.110Z,10.56
2023-03-05T02:42:02.458Z,10.69
2023-03-05T02:45:06.221Z,10.67
2023-03-05T02:48:08.480Z,10.46
2023-03-05T02:51:11.241Z,10.49
2023-03-05T02:54:13.408Z,10.51
2023-03-05T02:57:16.078Z,10.55
2023-03-05T03:00:18.442Z,10.64
2023-03-05T03:03:20.698Z,10.57
2023-03-05T03:06:23.070Z,10.41
2023-03-05T03:09:26.758Z,10.35
2023-03-05T03:12:29.020Z,10.42
2023-03-05T03:15:31.371Z,10.50
2023-03-05T03:18:33.744Z,10.58
2023-03-05T03:21:35.950Z,10.59
2023-03-05T03:24:38.722Z,10.59
2023-03-05T03:27:40.873Z,10.55
2023-03-05T03:30:43.242Z,10.45
2023-03-05T03:33:45.485Z,10.46
2023-03-05T03:36:49.404Z,10.61
2023-03-05T03:39:51.896Z,10.56
2023-03-05T03:42:54.863Z,10.66
2023-03-05T03:45:57.033Z,10.56
2023-03-05T03:48:59.237Z,10.61
2023-03-05T03:52:01.454Z,10.63
2023-03-05T03:55:03.732Z,10.62
2023-03-05T03:58:05.921Z,10.61
2023-03-05T04:01:08.052Z,10.56
2023-03-05T04:04:12.676Z,10.63
2023-03-05T04:07:14.913Z,10.68
2023-03-05T04:10:17.558Z,10.93
2023-03-05T04:13:22.274Z,10.94
2023-03-05T04:16:24.523Z,10.78
2023-03-05T04:19:28.402Z,10.70
2023-03-05T04:22:30.538Z,10.73
2023-03-05T04:25:32.744Z,10.86
2023-03-05T04:28:34.982Z,10.64
2023-03-05T04:31:37.116Z,10.62
2023-03-05T04:34:39.311Z,10.59
2023-03-05T04:37:41.656Z,10.60
2023-03-05T04:40:45.342Z,10.71
2023-03-05T04:43:47.567Z,10.66
2023-03-05T04:46:49.952Z,10.59
2023-03-05T04:49:52.296Z,10.47
2023-03-05T04:52:54.543Z,10.39
2023-03-05T04:55:57.060Z,10.47
2023-03-05T04:58:59.372Z,10.30
2023-03-05T05:02:01.544Z,10.38
2023-03-05T05:05:03.878Z,10.31
2023-03-05T05:08:06.111Z,10.33
2023-03-05T05:11:10.829Z,10.21
2023-03-05T05:14:13.200Z,10.10
2023-03-05T05:17:15.421Z,10.12
2023-03-05T05:20:17.713Z,10.06
2023-03-05T05:23:19.893Z,9.97
2023-03-05T05:26:22.053Z,9.88
2023-03-05T05:29:24.349Z,10.05
2023-03-05T05:32:26.587Z,10.12
2023-03-05T05:35:28.993Z,10.07
2023-03-05T05:38:31.265Z,10.08
2023-03-05T05:41:33.380Z,10.11
2023-03-05T05:44:35.604Z,10.05
2023-03-05T05:47:37.753Z,9.90
2023-03-05T05:50:41.091Z,9.93
2023-03-05T05:53:43.698Z,9.89
2023-03-05T05:56:45.839Z,9.89
2023-03-05T05:59:48.029Z,9.90
2023-03-05T06:02:50.287Z,9.87
2023-03-05T06:05:52.480Z,9.95
2023-03-05T06:08:55.330Z,9.95
2023-03-05T06:11:57.533Z,9.99
2023-03-05T06:14:59.699Z,9.86
2023-03-05T06:18:02.225Z,9.89
2023-03-05T06:21:07.671Z,9.87
2023-03-05T06:24:10.841Z,9.92
2023-03-05T06:27:12.947Z,9.91
2023-03-05T06:30:15.242Z,9.86
2023-03-05T06:33:17.652Z,9.93
2023-03-05T06:36:21.483Z,9.97
2023-03-05T06:39:23.578Z,10.11
2023-03-05T06:42:25.711Z,10.12
2023-03-05T06:45:27.884Z,10.13
2023-03-05T06:48:30.321Z,10.13
2023-03-05T06:51:37.710Z,10.11
2023-03-05T06:54:40.291Z,9.99
2023-03-05T06:57:42.488Z,10.01
2023-03-05T07:00:44.890Z,9.95
2023-03-05T07:03:51.776Z,9.96
2023-03-05T07:06:54.217Z,10.01
2023-03-05T07:09:56.414Z,9.92
2023-03-05T07:12:58.887Z,9.92
2023-03-05T07:16:05.747Z,10.00
2023-03-05T07:19:08.043Z,10.01
2023-03-05T07:22:10.406Z,10.06
2023-03-05T07:25:12.653Z,10.02
2023-03-05T07:28:14.814Z,10.08
2023-03-05T07:31:22.267Z,10.06
2023-03-05T07:34:26.152Z,10.16
2023-03-05T07:37:29.350Z,10.10
2023-03-05T07:40:31.592Z,10.08
2023-03-05T07:43:33.933Z,10.08
2023-03-05T07:46:36.375Z,10.05
2023-03-05T07:49:41.569Z,10.18
2023-03-05T07:52:43.785Z,10.16
2023-03-05T07:55:46.741Z,10.15
2023-03-05T07:58:48.854Z,10.24
2023-03-05T08:01:50.944Z,10.21
2023-03-05T08:04:53.201Z,10.25
2023-03-05T08:07:55.398Z,10.27
2023-03-05T08:10:57.563Z,10.26
2023-03-05T08:14:00.973Z,10.19
2023-03-05T08:17:04.689Z,10.31
2023-03-05T08:20:10.788Z,10.31
2023-03-05T08:23:13.015Z,10.29
2023-03-05T08:26:18.042Z,10.36
2023-03-05T08:29:20.325Z,10.35
2023-03-05T08:32:22.499Z,10.34
2023-03-05T08:35:24.746Z,10.32
2023-03-05T08:38:27.028Z,10.32
2023-03-05T08:41:29.523Z,10.42
2023-03-05T08:44:31.834Z,10.38
2023-03-05T08:47:33.956Z,10.37
2023-03-05T08:50:38.858Z,10.31
2023-03-05T08:53:41.859Z,10.46
2023-03-05T08:56:43.965Z,10.48
2023-03-05T08:59:46.127Z,10.48
2023-03-05T09:02:48.352Z,10.59
2023-03-05T09:05:51.521Z,10.62
2023-03-05T09:08:54.476Z,10.63
2023-03-05T09:12:01.203Z,10.75
2023-03-05T09:15:07.080Z,10.93
2023-03-05T09:18:09.329Z,10.98
2023-03-05T09:21:14.250Z,10.96
2023-03-05T09:24:16.452Z,11.08
2023-03-05T09:27:18.557Z,11.23
2023-03-05T09:30:21.106Z,11.45
2023-03-05T09:33:23.349Z,11.44
2023-03-05T09:36:28.458Z,11.51
2023-03-05T09:39:30.608Z,11.49
2023-03-05T09:43:03.653Z,11.50
2023-03-05T09:46:14.711Z,11.59
2023-03-05T09:49:52.396Z,11.69
2023-03-05T09:52:57.094Z,11.70
2023-03-05T09:56:03.717Z,11.75
2023-03-05T09:59:17.956Z,11.80
2023-03-05T10:02:26.846Z,11.74
2023-03-05T10:05:47.715Z,11.78
2023-03-05T10:08:55.921Z,11.81
2023-03-05T10:12:03.797Z,11.90
2023-03-05T10:15:12.444Z,11.89
2023-03-05T10:18:36.323Z,11.92
2023-03-05T10:21:52.869Z,11.99
2023-03-05T10:25:19.459Z,11.97
2023-03-05T10:28:46.975Z,11.88
2023-03-05T10:32:01.246Z,11.78
2023-03-05T10:35:03.402Z,11.87
2023-03-05T10:38:16.267Z,11.89
2023-03-05T10:41:48.420Z,12.04
2023-03-05T10:44:56.874Z,12.07
2023-03-05T10:48:08.896Z,12.17
2023-03-05T10:51:21.312Z,12.14
2023-03-05T10:54:31.533Z,12.21
2023-03-05T10:57:33.739Z,12.30
2023-03-05T11:00:36.371Z,12.27
2023-03-05T11:04:03.464Z,12.26
2023-03-05T11:07:27.644Z,12.26
2023-03-05T11:10:30.137Z,12.18
2023-03-05T11:13:33.789Z,12.30
2023-03-05T11:16:47.103Z,12.30
2023-03-05T11:19:49.305Z,12.20
2023-03-05T11:23:37.306Z,12.21
2023-03-05T11:26:58.033Z,12.22
2023-03-05T11:30:00.244Z,12.20
2023-03-05T11:33:20.458Z,12.20
2023-03-05T11:36:24.602Z,12.26
2023-03-05T11:39:28.314Z,12.38
2023-03-05T11:42:30.648Z,12.42
2023-03-05T11:45:33.991Z,12.42
2023-03-05T11:48:37.772Z,12.36
2023-03-05T11:52:10.664Z,12.37
2023-03-05T11:55:21.526Z,12.32
2023-03-05T11:58:36.190Z,12.26
2023-03-05T12:01:45.287Z,12.20
2023-03-05T12:04:48.862Z,12.15
2023-03-05T12:07:53.770Z,12.11
2023-03-05T12:10:56.437Z,12.13
2023-03-05T12:14:03.644Z,12.25
2023-03-05T12:17:24.042Z,12.30
2023-03-05T12:20:48.739Z,12.41
2023-03-05T12:23:59.051Z,12.44
2023-03-05T12:27:04.179Z,12.48
2023-03-05T12:30:29.516Z,12.52
2023-03-05T12:33:37.343Z,12.57
2023-03-05T12:36:40.932Z,12.53
2023-03-05T12:39:51.002Z,12.61
2023-03-05T12:42:57.073Z,12.65
2023-03-05T12:46:38.557Z,12.85
2023-03-05T12:49:44.861Z,12.89
2023-03-05T12:52:47.100Z,13.00
2023-03-05T12:56:12.705Z,13.00
2023-03-05T12:59:18.895Z,13.14
2023-03-05T13:02:26.305Z,13.13
2023-03-05T13:05:34.610Z,13.15
2023-03-05T13:08:37.856Z,13.20
2023-03-05T13:11:40.298Z,13.18
2023-03-05T13:14:47.784Z,13.19
2023-03-05T13:18:03.512Z,13.12
2023-03-05T13:21:14.760Z,13.07
2023-03-05T13:24:18.501Z,13.07
2023-03-05T13:27:27.820Z,12.93
2023-03-05T13:30:30.020Z,12.82
2023-03-05T13:33:34.737Z,12.66
2023-03-05T13:36:37.282Z,12.56
2023-03-05T13:39:49.402Z,12.49
2023-03-05T13:42:53.306Z,12.44
2023-03-05T13:45:56.472Z,12.45
2023-03-05T13:49:18.049Z,12.47
2023-03-05T13:52:29.799Z,12.52
2023-03-05T13:55:32.902Z,12.51
2023-03-05T13:58:56.593Z,12.42
2023-03-05T14:02:00.511Z,12.43
2023-03-05T14:05:02.867Z,12.51
2023-03-05T14:08:05.334Z,12.42
2023-03-05T14:11:15.556Z,12.33
2023-03-05T14:14:18.973Z,12.26
2023-03-05T14:17:30.117Z,12.21
2023-03-05T14:20:32.247Z,12.18
2023-03-05T14:23:36.646Z,12.23
2023-03-05T14:26:46.933Z,12.12
2023-03-05T14:29:49.107Z,12.08
2023-03-05T14:32:54.560Z,12.01
2023-03-05T14:35:57.953Z,12.01
2023-03-05T14:39:01.076Z,11.95
2023-03-05T14:42:13.981Z,11.96
2023-03-05T14:45:19.336Z,12.03
2023-03-05T14:48:21.456Z,11.98
2023-03-05T14:51:24.186Z,11.94
2023-03-05T14:54:26.403Z,12.02
2023-03-05T14:57:31.406Z,12.00
2023-03-05T15:00:33.516Z,12.05
2023-03-05T15:03:35.645Z,12.12
2023-03-05T15:06:39.860Z,12.17
2023-03-05T15:09:41.971Z,12.18
2023-03-05T15:12:44.606Z,12.09
2023-03-05T15:15:48.294Z,12.05
2023-03-05T15:18:50.473Z,11.99
2023-03-05T15:21:52.760Z,11.93
2023-03-05T15:24:54.908Z,11.95
2023-03-05T15:27:57.104Z,11.94
2023-03-05T15:31:00.417Z,11.79
2023-03-05T15:34:02.956Z,11.78
2023-03-05T15:37:05.181Z,11.65
2023-03-05T15:40:07.905Z,11.72
2023-03-05T15:43:10.416Z,11.64
2023-03-05T15:46:12.567Z,11.59
2023-03-05T15:49:15.194Z,11.56
2023-03-05T15:52:17.319Z,11.44
2023-03-05T15:55:19.762Z,11.35
2023-03-05T15:58:21.985Z,11.39
2023-03-05T16:01:24.203Z,11.28
2023-03-05T16:04:26.379Z,11.32
2023-03-05T16:07:29.561Z,11.25
2023-03-05T16:10:32.575Z,11.26
2023-03-05T16:13:34.956Z,11.14
2023-03-05T16:16:38.136Z,11.15
2023-03-05T16:19:43.172Z,11.10
2023-03-05T16:22:46.399Z,11.06
2023-03-05T16:25:48.620Z,11.13
2023-03-05T16:28:50.779Z,11.16
2023-03-05T16:31:52.929Z,11.19
2023-03-05T16:34:55.110Z,11.08
2023-03-05T16:37:57.310Z,10.95
2023-03-05T16:41:07.844Z,10.80
2023-03-05T16:44:10.957Z,10.77
2023-03-05T16:47:13.196Z,10.89
2023-03-05T16:50:15.362Z,10.76
2023-03-05T16:53:17.573Z,10.72
2023-03-05T16:56:19.952Z,10.68
2023-03-05T16:59:22.069Z,10.65
2023-03-05T17:02:24.308Z,10.62
2023-03-05T17:05:28.135Z,10.56
2023-03-05T17:08:30.277Z,10.48
2023-03-05T17:11:32.604Z,10.55
2023-03-05T17:14:34.758Z,10.48
2023-03-05T17:17:38.391Z,10.44
2023-03-05T17:20:40.770Z,10.34
2023-03-05T17:23:43.110Z,10.27
2023-03-05T17:26:46.454Z,10.30
2023-03-05T17:29:48.729Z,10.29
2023-03-05T17:32:53.732Z,10.17
2023-03-05T17:35:56.555Z,10.18
2023-03-05T17:38:58.768Z,10.15
2023-03-05T17:42:01.076Z,10.05
2023-03-05T17:45:04.425Z,10.05
2023-03-05T17:48:08.404Z,10.07
2023-03-05T17:51:13.096Z,10.23
2023-03-05T17:54:15.333Z,10.14
2023-03-05T17:57:17.504Z,10.05
2023-03-05T18:00:24.911Z,10.05
2023-03-05T18:03:27.300Z,10.03
2023-03-05T18:06:29.585Z,10.06
2023-03-05T18:09:31.814Z,10.02
2023-03-05T18:12:34.036Z,10.03
2023-03-05T18:15:37.364Z,9.96
2023-03-05T18:18:39.537Z,10.02
2023-03-05T18:21:41.839Z,10.03
2023-03-05T18:24:43.952Z,10.05
2023-03-05T18:27:46.076Z,10.10
2023-03-05T18:30:48.901Z,10.14
2023-03-05T18:33:51.151Z,10.04
2023-03-05T18:36:53.932Z,9.96
2023-03-05T18:39:57.952Z,10.01
2023-03-05T18:43:01.807Z,9.96
2023-03-05T18:46:05.079Z,10.00
2023-03-05T18:49:09.468Z,9.99
2023-03-05T18:52:12.510Z,10.02
2023-03-05T18:55:19.825Z,9.99
2023-03-05T18:58:23.010Z,9.96
2023-03-05T19:01:25.363Z,10.03
2023-03-05T19:04:27.749Z,10.02
2023-03-05T19:07:35.148Z,10.00
2023-03-05T19:10:37.541Z,9.89
2023-03-05T19:13:40.995Z,9.85
2023-03-05T19:16:44.162Z,9.84
2023-03-05T19:19:53.529Z,9.75
2023-03-05T19:22:55.752Z,9.71
2023-03-05T19:25:58.036Z,9.77
2023-03-05T19:29:00.164Z,9.81
2023-03-05T19:32:02.346Z,9.85
2023-03-05T19:35:04.909Z,9.97
2023-03-05T19:38:07.014Z,9.87
2023-03-05T19:41:10.517Z,9.95
2023-03-05T19:44:13.038Z,9.87
2023-03-05T19:47:15.152Z,9.79
2023-03-05T19:50:17.420Z,9.67
2023-03-05T19:53:19.621Z,9.67
2023-03-05T19:56:21.717Z,9.70
2023-03-05T19:59:24.379Z,9.76
2023-03-05T20:02:26.543Z,9.83
2023-03-05T20:05:28.936Z,9.85
2023-03-05T20:08:33.993Z,9.82
2023-03-05T20:11:36.322Z,9.86
2023-03-05T20:14:38.510Z,9.91
2023-03-05T20:17:40.809Z,9.95
2023-03-05T20:20:43.065Z,9.89
2023-03-05T20:23:45.226Z,9.85
2023-03-05T20:26:47.405Z,9.77
2023-03-05T20:29:49.753Z,9.68
2023-03-05T20:32:51.976Z,9.66
2023-03-05T20:35:56.455Z,9.70
2023-03-05T20:38:58.762Z,9.62
2023-03-05T20:42:00.960Z,9.67
2023-03-05T20:45:03.189Z,9.78
2023-03-05T20:48:05.437Z,9.83
2023-03-05T20:51:16.255Z,9.85
2023-03-05T20:54:18.466Z,9.89
2023-03-05T20:57:20.687Z,9.88
2023-03-05T21:00:23.485Z,9.91
2023-03-05T21:03:25.876Z,9.93
2023-03-05T21:06:29.304Z,10.00
2023-03-05T21:09:31.529Z,10.00
2023-03-05T21:12:33.801Z,10.01
2023-03-05T21:15:36.016Z,10.10
2023-03-05T21:18:38.198Z,10.13
2023-03-05T21:21:44.666Z,10.11
2023-03-05T21:25:27.524Z,10.04
2023-03-05T21:28:30.897Z,10.08
2023-03-05T21:31:33.261Z,10.02
2023-03-05T21:34:35.473Z,10.00
2023-03-05T21:37:42.374Z,10.06
2023-03-05T21:40:47.408Z,10.09
2023-03-05T21:43:49.609Z,10.05
2023-03-05T21:46:54.695Z,10.05
2023-03-05T21:49:57.042Z,10.08
2023-03-05T21:53:00.400Z,10.03
2023-03-05T21:56:28.365Z,10.01
2023-03-05T21:59:30.593Z,9.99
2023-03-05T22:02:32.746Z,9.91
2023-03-05T22:05:34.961Z,9.94
2023-03-05T22:08:37.327Z,9.95
2023-03-05T22:11:42.554Z,9.95
2023-03-05T22:14:44.737Z,9.91
2023-03-05T22:17:47.142Z,9.88
2023-03-05T22:20:49.662Z,9.92
2023-03-05T22:23:53.379Z,9.91
2023-03-05T22:26:55.687Z,10.02
2023-03-05T22:29:57.872Z,10.07
2023-03-05T22:33:01.613Z,10.17
2023-03-05T22:36:09.158Z,10.17
2023-03-05T22:39:11.318Z,10.12
2023-03-05T22:42:13.448Z,10.13
2023-03-05T22:45:17.085Z,10.13
2023-03-05T22:48:19.232Z,10.08
2023-03-05T22:51:21.613Z,10.07
2023-03-05T22:54:23.751Z,10.11
2023-03-05T22:57:25.964Z,10.13
2023-03-05T23:00:28.146Z,10.12
2023-03-05T23:03:30.384Z,10.18
2023-03-05T23:06:32.502Z,10.18
2023-03-05T23:09:34.656Z,10.24
2023-03-05T23:12:40.232Z,10.24
2023-03-05T23:15:42.462Z,10.23
2023-03-05T23:18:44.653Z,10.23
2023-03-05T23:21:46.757Z,10.27
2023-03-05T23:24:48.899Z,10.28
2023-03-05T23:27:51.184Z,10.24
2023-03-05T23:30:53.353Z,10.23
2023-03-05T23:33:55.456Z,10.25
2023-03-05T23:37:00.312Z,10.24
2023-03-05T23:40:03.859Z,10.26
2023-03-05T23:43:06.027Z,10.24
2023-03-05T23:46:12.143Z,10.26
2023-03-05T23:49:14.256Z,10.27
2023-03-05T23:52:16.414Z,10.19
2023-03-05T23:55:24.356Z,10.09
2023-03-05T23:58:26.728Z,10.08
